Time;durP1;ratioP1;P1;durP2;ratioP2;P2;SDS_P1;SDS_P2;PMS_P1;PMS_P2;Temp;Humidity;BMP_temperature;BMP_pressure;BME280_temperature;BME280_humidity;BME280_pressure;Samples;Min_cycle;Max_cycle;Signal;HPM_P1;HPM_P2
2022/05/09 00:02:16;;;;;;;4.50;4.10;;;23.50;54.70;;;;;;5009286;28;20419;-85
2022/05/09 00:04:44;;;;;;;4.27;3.90;;;23.50;54.70;;;;;;5009149;28;20424;-85
2022/05/09 00:07:12;;;;;;;4.80;4.40;;;23.50;54.60;;;;;;5009445;28;20408;-85
2022/05/09 00:09:42;;;;;;;4.93;4.53;;;23.50;54.60;;;;;;5010103;28;20428;-85
2022/05/09 00:12:12;;;;;;;5.50;5.00;;;23.50;54.60;;;;;;5009358;28;20408;-84
2022/05/09 00:14:37;;;;;;;4.73;4.33;;;23.50;54.60;;;;;;5009377;28;20447;-84
2022/05/09 00:17:04;;;;;;;5.13;4.73;;;23.50;54.60;;;;;;5010300;28;20408;-84
2022/05/09 00:19:39;;;;;;;4.70;4.30;;;23.60;54.60;;;;;;4993100;28;20205;-84
2022/05/09 00:22:05;;;;;;;4.73;4.23;;;23.50;54.60;;;;;;5010297;28;20479;-84
2022/05/09 00:24:31;;;;;;;4.50;4.10;;;23.50;54.60;;;;;;5010169;28;20408;-84
2022/05/09 00:26:57;;;;;;;5.00;4.50;;;23.50;54.60;;;;;;5010105;28;20468;-84
2022/05/09 00:29:24;;;;;;;5.47;4.97;;;23.50;54.60;;;;;;5009457;28;20771;-84
2022/05/09 00:31:56;;;;;;;5.50;4.50;;;23.60;54.60;;;;;;5008444;28;20859;-84
2022/05/09 00:34:23;;;;;;;4.10;3.70;;;23.60;54.60;;;;;;5009301;28;20443;-84
2022/05/09 00:36:52;;;;;;;5.10;4.60;;;23.60;54.60;;;;;;5010157;28;20448;-84
2022/05/09 00:39:20;;;;;;;5.00;4.60;;;23.60;54.60;;;;;;4992754;28;20989;-84
2022/05/09 00:41:46;;;;;;;4.93;4.53;;;23.60;54.60;;;;;;5009252;28;20463;-84
2022/05/09 00:44:21;;;;;;;4.70;4.23;;;23.60;54.60;;;;;;5008130;28;20421;-84
2022/05/09 00:46:53;;;;;;;5.30;4.80;;;23.60;54.60;;;;;;5007956;28;20802;-84
2022/05/09 00:49:40;;;;;;;4.67;4.27;;;23.60;54.60;;;;;;5007885;28;20438;-83
2022/05/09 00:52:16;;;;;;;4.73;4.23;;;23.60;54.60;;;;;;5008375;28;20498;-85
2022/05/09 00:54:48;;;;;;;4.73;4.33;;;23.50;54.60;;;;;;5008050;28;20427;-84
2022/05/09 00:57:36;;;;;;;4.23;3.83;;;23.60;54.70;;;;;;5007960;28;20432;-84
2022/05/09 01:00:14;;;;;;;4.50;4.10;;;23.50;54.60;;;;;;5008013;28;20475;-84
2022/05/09 01:02:43;;;;;;;5.10;4.60;;;23.50;54.60;;;;;;5009023;28;20883;-84
2022/05/09 01:05:12;;;;;;;4.60;4.13;;;23.50;54.60;;;;;;5009466;28;20397;-84
2022/05/09 01:07:39;;;;;;;4.40;4.00;;;23.50;54.60;;;;;;5000055;28;20431;-85
2022/05/09 01:10:09;;;;;;;4.80;4.40;;;23.50;54.60;;;;;;5008934;28;20400;-85
2022/05/09 01:12:37;;;;;;;4.17;3.87;;;23.50;54.60;;;;;;5007585;28;20765;-85
2022/05/09 01:15:09;;;;;;;4.40;4.00;;;23.50;54.60;;;;;;5008661;28;20772;-85
2022/05/09 01:17:39;;;;;;;4.33;3.93;;;23.50;54.60;;;;;;4992015;28;20420;-85
2022/05/09 01:20:10;;;;;;;4.27;3.90;;;23.50;54.60;;;;;;5009776;28;20432;-85
2022/05/09 01:22:38;;;;;;;4.47;4.07;;;23.50;54.60;;;;;;5010193;28;20448;-85
2022/05/09 01:28:27;;;;;;;4.30;3.93;;;23.50;54.50;;;;;;5008387;28;20407;-85
2022/05/09 01:31:01;;;;;;;4.20;3.53;;;23.50;54.50;;;;;;5007914;28;20428;-85
2022/05/09 01:33:37;;;;;;;4.93;4.40;;;23.50;54.60;;;;;;5007680;28;20408;-85
2022/05/09 01:36:16;;;;;;;5.23;4.80;;;23.50;54.60;;;;;;5008394;28;20424;-85
2022/05/09 01:39:01;;;;;;;3.93;3.53;;;23.50;54.60;;;;;;5008380;28;20444;-85
2022/05/09 01:41:35;;;;;;;4.50;4.10;;;23.50;54.70;;;;;;4883960;28;3576259;-85
2022/05/09 01:44:01;;;;;;;4.60;4.20;;;23.50;54.70;;;;;;5009339;28;20179;-85
2022/05/09 01:49:51;;;;;;;4.57;4.07;;;23.50;54.70;;;;;;5008832;28;20392;-85
2022/05/09 01:52:18;;;;;;;4.60;4.20;;;23.50;54.80;;;;;;4991463;28;20458;-85
2022/05/09 01:54:44;;;;;;;4.40;4.00;;;23.50;54.80;;;;;;5007834;28;20420;-85
2022/05/09 01:57:12;;;;;;;4.50;4.10;;;23.50;54.70;;;;;;4992316;28;20450;-85
2022/05/09 01:59:43;;;;;;;4.23;3.83;;;23.50;54.70;;;;;;5008670;28;20455;-85
2022/05/09 02:02:15;;;;;;;4.00;3.67;;;23.50;54.70;;;;;;5008572;28;20396;-85
2022/05/09 02:04:42;;;;;;;4.10;3.80;;;23.50;54.70;;;;;;5007914;28;20420;-85
2022/05/09 02:07:14;;;;;;;5.10;4.70;;;23.50;54.70;;;;;;5008081;28;20447;-85
2022/05/09 02:09:42;;;;;;;4.00;3.60;;;23.50;54.70;;;;;;5009264;28;20397;-85
2022/05/09 02:12:10;;;;;;;4.30;3.90;;;23.50;54.60;;;;;;5008799;28;20514;-85
2022/05/09 02:14:36;;;;;;;4.13;3.80;;;23.50;54.60;;;;;;5007748;28;20430;-85
2022/05/09 02:17:08;;;;;;;3.90;3.60;;;23.50;54.60;;;;;;5007536;28;20452;-85
2022/05/09 02:19:35;;;;;;;4.63;4.13;;;23.50;54.60;;;;;;5008293;28;20253;-85
2022/05/09 02:22:02;;;;;;;3.53;3.20;;;23.50;54.60;;;;;;4991417;28;20417;-85
2022/05/09 02:24:29;;;;;;;4.00;3.60;;;23.50;54.60;;;;;;5008961;28;20412;-85
2022/05/09 02:26:57;;;;;;;3.07;2.87;;;23.50;54.50;;;;;;4992463;28;20786;-85
2022/05/09 02:29:24;;;;;;;3.90;3.33;;;23.50;54.50;;;;;;5009175;28;20432;-85
2022/05/09 02:31:50;;;;;;;3.70;3.40;;;23.50;54.50;;;;;;5009284;28;20444;-85
2022/05/09 02:34:19;;;;;;;3.17;2.97;;;23.50;54.50;;;;;;5008239;28;20428;-85
2022/05/09 02:36:45;;;;;;;4.90;4.50;;;23.50;54.60;;;;;;5008777;28;20922;-85
2022/05/09 02:39:10;;;;;;;4.07;3.70;;;23.50;54.60;;;;;;5007816;28;20475;-85
2022/05/09 02:41:36;;;;;;;4.67;3.73;;;23.50;54.60;;;;;;5008059;28;20193;-85
2022/05/09 02:44:03;;;;;;;4.20;3.80;;;23.50;54.60;;;;;;5024495;28;20185;-86
2022/05/09 02:46:30;;;;;;;3.33;3.03;;;23.50;54.60;;;;;;5008898;28;20169;-85
2022/05/09 02:48:59;;;;;;;4.23;3.83;;;23.50;54.60;;;;;;5008379;28;20424;-85
2022/05/09 02:51:27;;;;;;;4.17;3.87;;;23.50;54.60;;;;;;5008495;28;20428;-86
2022/05/09 02:53:56;;;;;;;4.30;3.57;;;23.50;54.60;;;;;;5009092;28;20448;-85
2022/05/09 02:56:22;;;;;;;3.57;3.27;;;23.50;54.60;;;;;;5028195;28;20427;-85
2022/05/09 02:58:48;;;;;;;3.90;3.50;;;23.50;54.60;;;;;;5011507;28;20482;-85
2022/05/09 03:10:51;;;;;;;3.80;3.50;;;23.50;54.60;;;;;;5012470;28;20403;-85
2022/05/09 03:13:17;;;;;;;3.30;3.00;;;23.50;54.60;;;;;;5011801;28;20427;-85
2022/05/09 03:15:45;;;;;;;4.03;3.70;;;23.50;54.70;;;;;;5010636;28;20436;-85
2022/05/09 03:18:13;;;;;;;4.40;4.00;;;23.50;54.60;;;;;;5011433;28;20205;-85
2022/05/09 03:20:42;;;;;;;3.60;3.30;;;23.50;54.60;;;;;;5011812;28;20408;-85
2022/05/09 03:23:09;;;;;;;5.63;4.17;;;23.50;54.60;;;;;;4995344;28;20417;-85
2022/05/09 03:25:37;;;;;;;3.60;3.30;;;23.50;54.60;;;;;;5011874;28;20411;-85
2022/05/09 03:28:04;;;;;;;3.53;3.23;;;23.50;54.60;;;;;;5012806;28;20405;-85
2022/05/09 03:30:30;;;;;;;3.37;3.13;;;23.50;54.50;;;;;;5011568;28;20805;-85
2022/05/09 03:32:58;;;;;;;3.80;3.50;;;23.50;54.50;;;;;;5011322;28;20426;-85
2022/05/09 03:35:31;;;;;;;3.80;3.20;;;23.50;54.50;;;;;;5011020;28;20419;-85
2022/05/09 03:37:57;;;;;;;3.60;3.27;;;23.50;54.50;;;;;;5012204;28;20479;-85
2022/05/09 03:40:24;;;;;;;3.17;2.87;;;23.50;54.50;;;;;;5011194;28;20408;-85
2022/05/09 03:42:52;;;;;;;3.20;3.00;;;23.50;54.40;;;;;;5011767;28;20459;-85
2022/05/09 03:45:19;;;;;;;3.60;3.07;;;23.50;54.50;;;;;;4995550;28;20444;-85
2022/05/09 03:48:06;;;;;;;3.43;3.13;;;23.50;54.50;;;;;;5010497;28;20447;-85
2022/05/09 03:50:32;;;;;;;3.80;3.50;;;23.50;54.50;;;;;;5011369;28;20416;-85
2022/05/09 03:52:59;;;;;;;3.53;3.23;;;23.50;54.50;;;;;;5011373;28;20421;-85
2022/05/09 03:55:26;;;;;;;4.43;3.57;;;23.50;54.50;;;;;;5012005;28;20934;-85
2022/05/09 03:57:56;;;;;;;3.50;3.20;;;23.50;54.50;;;;;;5012336;28;20467;-84
2022/05/09 04:00:24;;;;;;;3.60;3.30;;;23.50;54.40;;;;;;5011560;28;20421;-84
2022/05/09 04:02:51;;;;;;;3.23;2.93;;;23.50;54.50;;;;;;5011345;28;20480;-84
2022/05/09 04:05:19;;;;;;;4.00;3.60;;;23.50;54.50;;;;;;5026001;28;20519;-84
2022/05/09 04:07:47;;;;;;;3.90;3.20;;;23.50;54.50;;;;;;4994536;28;20428;-85
2022/05/09 04:10:16;;;;;;;3.50;3.20;;;23.50;54.50;;;;;;5011744;28;20416;-85
2022/05/09 04:12:42;;;;;;;3.30;3.10;;;23.50;54.50;;;;;;5027120;28;20427;-85
2022/05/09 04:17:59;;;;;;;3.70;3.40;;;23.50;54.50;;;;;;5010744;28;20443;-83
2022/05/09 04:20:29;;;;;;;3.70;3.40;;;23.50;54.50;;;;;;5012529;28;20403;-84
2022/05/09 04:22:57;;;;;;;3.50;3.20;;;23.50;54.50;;;;;;5009196;28;20419;-84
2022/05/09 04:25:23;;;;;;;3.50;3.20;;;23.50;54.50;;;;;;5010815;28;20428;-85
2022/05/09 04:27:50;;;;;;;3.23;2.97;;;23.50;54.60;;;;;;5011783;28;20419;-84
2022/05/09 04:30:20;;;;;;;4.30;3.40;;;23.50;54.60;;;;;;5011788;28;20412;-84
2022/05/09 04:32:47;;;;;;;3.80;3.40;;;23.50;54.60;;;;;;5011966;28;20459;-83
2022/05/09 04:35:19;;;;;;;3.67;3.37;;;23.50;54.60;;;;;;5012532;28;20407;-84
2022/05/09 04:37:53;;;;;;;3.10;2.90;;;23.50;54.70;;;;;;5027720;28;20463;-83
2022/05/09 04:40:33;;;;;;;3.43;3.13;;;23.50;54.70;;;;;;5011214;28;20412;-85
2022/05/09 04:43:00;;;;;;;3.67;3.37;;;23.50;54.70;;;;;;5011085;28;20467;-84
2022/05/09 04:45:29;;;;;;;3.30;3.00;;;23.50;54.70;;;;;;5012797;28;20895;-83
2022/05/09 04:47:55;;;;;;;3.63;3.33;;;23.50;55.20;;;;;;5011021;28;20428;-84
2022/05/09 04:50:24;;;;;;;3.60;3.30;;;23.60;54.70;;;;;;5011551;28;20416;-84
2022/05/09 04:52:51;;;;;;;4.07;3.70;;;23.60;54.70;;;;;;5011853;28;20402;-84
2022/05/09 04:55:19;;;;;;;3.43;3.13;;;23.60;54.70;;;;;;4995058;28;20939;-84
2022/05/09 04:57:48;;;;;;;2.80;2.60;;;23.60;54.70;;;;;;5011370;28;20943;-83
2022/05/09 05:00:27;;;;;;;3.47;3.17;;;23.60;54.70;;;;;;5010749;28;20486;-83
2022/05/09 05:02:55;;;;;;;4.50;4.20;;;23.60;54.60;;;;;;5010886;28;20397;-83
2022/05/09 05:05:22;;;;;;;3.50;3.20;;;23.60;54.60;;;;;;5009793;28;20500;-83
2022/05/09 05:07:48;;;;;;;3.40;3.10;;;23.60;54.60;;;;;;5009769;28;20415;-83
2022/05/09 05:10:21;;;;;;;3.23;2.93;;;23.60;54.60;;;;;;5010335;28;20428;-83
2022/05/09 05:13:03;;;;;;;3.47;2.63;;;23.60;54.50;;;;;;5010463;28;20440;-83
2022/05/09 05:15:32;;;;;;;3.70;3.30;;;23.60;54.50;;;;;;5010944;28;20403;-83
2022/05/09 05:18:18;;;;;;;3.20;2.80;;;23.60;54.40;;;;;;5010598;28;20463;-83
2022/05/09 05:20:48;;;;;;;3.17;2.97;;;23.70;54.50;;;;;;5013035;28;20420;-83
2022/05/09 05:23:16;;;;;;;3.17;2.90;;;23.60;54.40;;;;;;5011857;28;20460;-83
2022/05/09 05:25:45;;;;;;;3.23;2.93;;;23.70;54.50;;;;;;5012124;28;20937;-83
2022/05/09 05:28:13;;;;;;;3.50;2.93;;;23.70;54.60;;;;;;5010842;28;20436;-83
2022/05/09 05:30:47;;;;;;;3.40;3.10;;;23.70;54.60;;;;;;5011448;28;20449;-83
2022/05/09 05:33:15;;;;;;;2.83;2.60;;;23.70;54.60;;;;;;5028015;28;20416;-83
2022/05/09 05:35:46;;;;;;;2.77;2.53;;;23.70;54.60;;;;;;5010705;28;20483;-83
2022/05/09 05:38:14;;;;;;;3.17;2.87;;;23.70;54.60;;;;;;5011947;28;20460;-81
2022/05/09 05:40:40;;;;;;;3.17;2.90;;;23.70;54.50;;;;;;5011596;28;20945;-82
2022/05/09 05:43:07;;;;;;;2.87;2.60;;;23.70;54.50;;;;;;5010469;28;20455;-82
2022/05/09 05:45:33;;;;;;;3.17;2.87;;;23.70;54.60;;;;;;5011170;28;20929;-82
2022/05/09 05:48:00;;;;;;;3.43;2.90;;;23.70;54.50;;;;;;5010359;28;20396;-82
2022/05/09 05:50:26;;;;;;;3.27;2.97;;;23.70;54.50;;;;;;5010209;28;20492;-82
2022/05/09 05:52:55;;;;;;;3.03;2.73;;;23.70;54.50;;;;;;5010472;28;20431;-82
2022/05/09 05:55:21;;;;;;;3.10;2.70;;;23.70;54.50;;;;;;5010656;28;20173;-82
2022/05/09 05:57:49;;;;;;;2.87;2.67;;;23.70;54.50;;;;;;4991859;28;20496;-82
2022/05/09 06:00:23;;;;;;;3.10;2.63;;;23.80;54.60;;;;;;4991620;28;20507;-82
2022/05/09 06:02:52;;;;;;;3.33;3.03;;;23.80;54.60;;;;;;4991140;28;20500;-81
2022/05/09 06:05:19;;;;;;;2.80;2.57;;;23.80;54.70;;;;;;5007112;28;20419;-83
2022/05/09 06:07:52;;;;;;;2.80;2.60;;;23.80;54.70;;;;;;5006907;28;20781;-82
2022/05/09 06:10:18;;;;;;;2.53;2.00;;;23.80;54.70;;;;;;4991776;28;20765;-82
2022/05/09 06:12:46;;;;;;;2.73;2.40;;;23.80;54.70;;;;;;4992087;28;20438;-82
2022/05/09 06:15:34;;;;;;;4.33;2.57;;;23.80;54.70;;;;;;4975278;28;20427;-82
2022/05/09 06:18:15;;;;;;;2.60;2.40;;;23.80;55.20;;;;;;4992481;28;20475;-82
2022/05/09 06:20:43;;;;;;;3.03;2.73;;;23.80;54.70;;;;;;5007779;28;20416;-82
2022/05/09 06:23:12;;;;;;;4.60;3.10;;;23.80;54.70;;;;;;4991986;28;20424;-82
2022/05/09 06:25:41;;;;;;;2.70;2.50;;;23.80;54.70;;;;;;4991871;28;20428;-82
2022/05/09 06:28:08;;;;;;;2.60;2.33;;;23.80;55.30;;;;;;4991547;28;20400;-82
2022/05/09 06:30:35;;;;;;;2.40;2.20;;;23.80;54.70;;;;;;4995062;28;20466;-82
2022/05/09 06:33:06;;;;;;;2.77;2.57;;;23.80;54.70;;;;;;4994689;28;20425;-82
2022/05/09 06:35:37;;;;;;;5.03;2.50;;;23.80;54.70;;;;;;4995330;28;20405;-82
2022/05/09 06:38:08;;;;;;;3.23;2.90;;;23.80;54.80;;;;;;4995240;28;20449;-82
2022/05/09 06:40:35;;;;;;;3.73;2.33;;;23.80;54.70;;;;;;4994274;28;20405;-82
2022/05/09 06:43:03;;;;;;;2.67;2.47;;;23.80;54.80;;;;;;5010747;28;20444;-82
2022/05/09 06:45:32;;;;;;;3.40;2.73;;;23.80;54.70;;;;;;4977207;28;20417;-82
2022/05/09 06:47:59;;;;;;;2.20;2.00;;;23.80;54.80;;;;;;4995476;28;20439;-82
2022/05/09 06:50:30;;;;;;;2.97;2.77;;;23.80;54.80;;;;;;4994559;28;20429;-83
2022/05/09 06:53:00;;;;;;;2.53;2.33;;;23.80;54.80;;;;;;4994253;28;20497;-83
2022/05/09 06:55:26;;;;;;;2.50;2.30;;;23.80;54.80;;;;;;4994705;28;20418;-83
2022/05/09 06:57:54;;;;;;;3.23;2.87;;;23.80;54.80;;;;;;4994485;28;20457;-83
2022/05/09 07:00:32;;;;;;;3.80;2.63;;;23.80;54.80;;;;;;4994538;28;20393;-83
2022/05/09 07:02:59;;;;;;;2.43;2.23;;;23.80;54.80;;;;;;4995639;28;20423;-82
2022/05/09 07:05:25;;;;;;;4.60;2.47;;;23.80;54.80;;;;;;4995341;28;20417;-82
2022/05/09 07:08:05;;;;;;;2.57;2.33;;;23.80;54.80;;;;;;4993924;28;20421;-83
2022/05/09 07:10:32;;;;;;;2.30;2.10;;;23.80;54.80;;;;;;4994834;28;20435;-83
2022/05/09 07:13:04;;;;;;;2.43;2.23;;;23.80;54.80;;;;;;4995243;28;20432;-83
2022/05/09 07:15:32;;;;;;;2.40;2.10;;;23.80;54.80;;;;;;5013964;28;20424;-83
2022/05/09 07:18:02;;;;;;;2.73;2.53;;;23.80;54.80;;;;;;5015168;28;20479;-82
2022/05/09 07:20:33;;;;;;;2.37;2.17;;;23.80;54.80;;;;;;5015178;28;20484;-82
2022/05/09 07:23:10;;;;;;;2.33;2.10;;;23.90;54.90;;;;;;5014466;28;20898;-82
2022/05/09 07:25:55;;;;;;;3.73;2.30;;;23.90;55.00;;;;;;5014566;28;20399;-82
2022/05/09 07:28:29;;;;;;;3.13;2.83;;;23.80;54.90;;;;;;5014567;28;20789;-82
2022/05/09 07:31:00;;;;;;;2.40;2.20;;;23.80;54.90;;;;;;5014214;28;20416;-82
2022/05/09 07:33:28;;;;;;;3.10;2.90;;;23.90;55.00;;;;;;5013688;28;20416;-82
2022/05/09 07:35:55;;;;;;;2.57;2.37;;;23.90;55.00;;;;;;5013824;28;20405;-82
2022/05/09 07:38:22;;;;;;;2.20;2.00;;;23.90;55.00;;;;;;5012502;28;20474;-83
2022/05/09 07:40:48;;;;;;;3.07;2.50;;;23.90;55.00;;;;;;5013544;28;20411;-83
2022/05/09 07:43:17;;;;;;;3.37;2.60;;;23.90;55.00;;;;;;5011975;28;20436;-82
2022/05/09 07:45:45;;;;;;;2.77;2.57;;;23.90;55.00;;;;;;5012146;28;20472;-82
2022/05/09 07:48:13;;;;;;;2.93;2.50;;;23.90;55.00;;;;;;5012327;28;20439;-82
2022/05/09 07:50:43;;;;;;;2.10;1.90;;;23.90;55.00;;;;;;5011496;28;20424;-83
2022/05/09 07:53:13;;;;;;;2.30;2.10;;;23.90;55.00;;;;;;4996577;28;20492;-82
2022/05/09 07:55:45;;;;;;;2.23;2.03;;;23.90;55.00;;;;;;5012835;28;20427;-83
2022/05/09 07:58:14;;;;;;;2.87;2.60;;;23.90;55.00;;;;;;5013832;28;20460;-83
2022/05/09 08:00:42;;;;;;;2.50;2.30;;;23.90;55.00;;;;;;5013869;28;20416;-83
2022/05/09 08:03:15;;;;;;;2.90;2.70;;;23.90;55.00;;;;;;5012111;28;20408;-85
2022/05/09 08:05:43;;;;;;;2.73;2.53;;;23.90;55.00;;;;;;5012223;28;20391;-83
2022/05/09 08:08:13;;;;;;;2.80;2.30;;;23.90;55.00;;;;;;5012617;28;20412;-82
2022/05/09 08:10:42;;;;;;;2.63;2.23;;;23.90;55.10;;;;;;5012892;28;20442;-82
2022/05/09 08:13:13;;;;;;;2.70;2.50;;;23.90;55.10;;;;;;5012395;28;20423;-82
2022/05/09 08:15:40;;;;;;;2.37;2.10;;;23.90;55.10;;;;;;5013978;28;20421;-82
2022/05/09 08:18:10;;;;;;;2.47;2.27;;;23.90;55.10;;;;;;5012806;28;20456;-82
2022/05/09 08:20:45;;;;;;;2.80;2.20;;;23.90;55.10;;;;;;5012689;28;20423;-85
2022/05/09 08:23:16;;;;;;;2.43;2.23;;;23.90;55.10;;;;;;5013013;28;20410;-83
2022/05/09 08:25:46;;;;;;;2.43;2.10;;;23.90;55.10;;;;;;5012349;28;20416;-83
2022/05/09 08:28:15;;;;;;;2.63;2.10;;;23.90;55.10;;;;;;5012797;28;20424;-82
2022/05/09 08:30:51;;;;;;;2.43;2.23;;;23.90;55.20;;;;;;5013412;28;20538;-82
2022/05/09 08:33:23;;;;;;;2.30;2.10;;;23.90;55.10;;;;;;5012138;28;20404;-82
2022/05/09 08:35:52;;;;;;;2.10;1.90;;;23.90;55.20;;;;;;5012215;28;20396;-83
2022/05/09 08:38:22;;;;;;;1.90;1.80;;;23.90;55.20;;;;;;5011973;28;20456;-83
2022/05/09 08:41:11;;;;;;;2.33;2.13;;;23.90;55.20;;;;;;5013123;28;20389;-82
2022/05/09 08:43:50;;;;;;;2.47;2.27;;;23.90;55.20;;;;;;5012683;28;20452;-82
2022/05/09 08:46:40;;;;;;;2.47;2.13;;;23.90;55.20;;;;;;5011453;28;20440;-82
2022/05/09 08:49:47;;;;;;;1.97;1.77;;;23.90;55.20;;;;;;5012324;28;20381;-82
2022/05/09 08:52:42;;;;;;;3.00;2.10;;;23.90;55.20;;;;;;4991707;28;20409;-82
2022/05/09 08:55:12;;;;;;;2.57;2.23;;;23.90;55.20;;;;;;4978247;28;20489;-83
2022/05/09 08:57:50;;;;;;;2.37;2.17;;;23.90;55.30;;;;;;4975570;28;20420;-83
2022/05/09 09:00:21;;;;;;;2.73;2.20;;;23.90;55.30;;;;;;4992043;28;20431;-83
2022/05/09 09:03:28;;;;;;;3.83;2.00;;;23.90;55.30;;;;;;4975530;28;20402;-83
2022/05/09 09:06:00;;;;;;;2.40;1.97;;;23.90;55.30;;;;;;4915383;29;20413;-82
2022/05/09 09:09:07;;;;;;;2.60;2.40;;;23.90;55.30;;;;;;4885006;29;20838;-82
2022/05/09 09:12:16;;;;;;;2.20;2.00;;;23.90;55.30;;;;;;4920199;29;20429;-82
2022/05/09 09:14:51;;;;;;;2.17;2.00;;;23.90;55.30;;;;;;4899203;29;20495;-82
2022/05/09 09:24:28;;;;;;;2.23;1.80;;;23.90;55.30;;;;;;4898943;29;20590;-82
2022/05/09 09:27:31;;;;;;;2.20;2.00;;;23.90;55.30;;;;;;4889323;29;20416;-83
2022/05/09 09:30:11;;;;;;;2.13;1.93;;;23.90;55.30;;;;;;4915759;29;20428;-84
2022/05/09 09:32:44;;;;;;;2.30;1.87;;;23.90;55.40;;;;;;4901950;29;20420;-83
2022/05/09 09:35:55;;;;;;;3.00;2.03;;;23.90;55.30;;;;;;4917676;29;20415;-83
2022/05/09 09:38:57;;;;;;;2.20;2.00;;;23.90;55.30;;;;;;4917965;29;20465;-82
2022/05/09 09:41:37;;;;;;;1.90;1.80;;;23.90;55.30;;;;;;4918617;29;20413;-82
2022/05/09 09:44:15;;;;;;;2.40;1.83;;;23.90;55.30;;;;;;4944649;29;20553;-83
2022/05/09 09:47:08;;;;;;;2.17;1.97;;;23.90;55.30;;;;;;4960074;29;20491;-83
2022/05/09 09:52:59;;;;;;;2.90;2.23;;;23.90;55.30;;;;;;5012655;28;20381;-82
2022/05/09 09:55:35;;;;;;;2.50;2.30;;;23.90;55.30;;;;;;5010048;28;20454;-82
2022/05/09 09:58:39;;;;;;;2.07;1.90;;;23.90;55.30;;;;;;5011432;28;20481;-81
2022/05/09 10:01:09;;;;;;;2.80;2.33;;;23.90;55.30;;;;;;4975030;28;20445;-82
2022/05/09 10:03:40;;;;;;;2.30;2.10;;;23.90;55.30;;;;;;4991532;28;20468;-83
2022/05/09 10:06:18;;;;;;;2.30;2.10;;;23.90;55.30;;;;;;4991104;28;20398;-84
2022/05/09 10:08:44;;;;;;;2.33;2.13;;;23.90;55.30;;;;;;4975884;28;20417;-84
2022/05/09 10:11:39;;;;;;;2.40;2.20;;;23.90;55.30;;;;;;4975502;28;20409;-84
2022/05/09 10:14:10;;;;;;;3.10;2.60;;;23.90;55.30;;;;;;4915749;28;20488;-84
2022/05/09 10:16:49;;;;;;;2.00;1.80;;;23.90;55.30;;;;;;4914866;29;20455;-83
2022/05/09 10:19:31;;;;;;;2.50;1.87;;;23.90;55.30;;;;;;4915712;29;20464;-83
2022/05/09 10:25:19;;;;;;;2.00;1.90;;;23.90;55.30;;;;;;4915973;29;20472;-83
2022/05/09 10:27:47;;;;;;;2.30;2.10;;;23.90;55.30;;;;;;4899147;28;20437;-83
2022/05/09 10:30:29;;;;;;;2.10;1.60;;;23.90;55.30;;;;;;4917372;29;20428;-83
2022/05/09 10:33:16;;;;;;;2.70;2.03;;;23.90;55.30;;;;;;4916126;29;20397;-84
2022/05/09 10:35:56;;;;;;;2.47;2.20;;;23.90;55.30;;;;;;4907187;29;20424;-84
2022/05/09 10:38:46;;;;;;;1.70;1.60;;;23.90;55.30;;;;;;4939435;29;20474;-83
2022/05/09 10:41:37;;;;;;;1.80;1.70;;;23.90;55.30;;;;;;4954226;29;20488;-82
2022/05/09 10:44:23;;;;;;;2.27;2.07;;;23.90;55.40;;;;;;4954083;29;20435;-83
2022/05/09 10:46:59;;;;;;;2.20;2.00;;;23.90;56.00;;;;;;4942036;29;20415;-83
2022/05/09 10:49:46;;;;;;;1.97;1.77;;;23.90;55.50;;;;;;4953438;28;20442;-83
2022/05/09 10:52:25;;;;;;;2.30;2.07;;;23.90;55.50;;;;;;5010914;28;20428;-82
2022/05/09 10:54:54;;;;;;;2.43;2.03;;;23.90;55.60;;;;;;5011267;28;20438;-83
2022/05/09 10:57:58;;;;;;;3.47;2.40;;;23.90;55.60;;;;;;5011656;28;20420;-83
2022/05/09 11:00:28;;;;;;;2.40;2.00;;;23.90;55.60;;;;;;4990694;28;20424;-83
2022/05/09 11:03:25;;;;;;;1.90;1.80;;;23.90;55.60;;;;;;5011038;28;20412;-83
2022/05/09 11:05:51;;;;;;;2.87;1.80;;;23.90;55.60;;;;;;5012001;28;20423;-83
2022/05/09 11:08:26;;;;;;;1.73;1.63;;;23.90;55.70;;;;;;5012830;28;20420;-84
2022/05/09 11:11:25;;;;;;;3.30;2.17;;;23.90;55.70;;;;;;5012106;28;20165;-83
2022/05/09 11:13:59;;;;;;;1.97;1.77;;;23.90;55.70;;;;;;5011987;28;20433;-83
2022/05/09 11:17:16;;;;;;;2.63;1.90;;;23.90;55.70;;;;;;5013631;28;20404;-83
2022/05/09 11:19:45;;;;;;;2.00;1.87;;;23.90;55.80;;;;;;4988491;28;20454;-83
2022/05/09 11:22:24;;;;;;;2.10;1.90;;;23.90;55.80;;;;;;5014366;28;20860;-84
2022/05/09 11:25:08;;;;;;;2.43;2.23;;;23.90;55.90;;;;;;5013476;28;20400;-84
2022/05/09 11:27:47;;;;;;;2.40;2.20;;;23.90;55.90;;;;;;5014004;28;20782;-84
2022/05/09 11:30:25;;;;;;;2.60;2.17;;;23.90;55.90;;;;;;5013143;28;20453;-84
2022/05/09 11:33:24;;;;;;;2.00;1.77;;;23.90;55.90;;;;;;5012310;28;20408;-84
2022/05/09 11:35:56;;;;;;;2.20;2.00;;;23.90;56.40;;;;;;4993480;28;20424;-84
2022/05/09 11:38:38;;;;;;;2.27;1.70;;;23.90;55.90;;;;;;4976115;28;20441;-84
2022/05/09 11:41:27;;;;;;;2.13;1.80;;;23.90;55.90;;;;;;4976171;28;20473;-84
2022/05/09 11:44:34;;;;;;;2.47;1.80;;;23.90;56.00;;;;;;4933681;28;20486;-84
2022/05/09 11:47:23;;;;;;;2.40;2.20;;;23.90;56.00;;;;;;4933228;28;20392;-87
2022/05/09 11:50:31;;;;;;;1.70;1.60;;;23.90;56.00;;;;;;4916004;28;20424;-84
2022/05/09 11:53:00;;;;;;;1.70;1.60;;;23.90;56.00;;;;;;4939149;29;20418;-84
2022/05/09 11:55:26;;;;;;;2.17;1.80;;;23.90;56.00;;;;;;4955224;29;20502;-84
2022/05/09 11:57:58;;;;;;;1.90;1.80;;;23.90;56.00;;;;;;4955126;29;20413;-83
2022/05/09 12:00:29;;;;;;;2.00;1.70;;;23.90;56.00;;;;;;4957616;29;20802;-83
2022/05/09 12:02:58;;;;;;;2.30;1.90;;;23.90;56.00;;;;;;4958653;29;20427;-85
2022/05/09 12:05:27;;;;;;;2.70;2.50;;;23.90;55.90;;;;;;4958616;28;20496;-84
2022/05/09 12:08:17;;;;;;;2.73;1.80;;;23.90;55.90;;;;;;4959707;29;20427;-82
2022/05/09 12:11:21;;;;;;;2.13;1.90;;;23.90;55.90;;;;;;4938241;29;20420;-83
2022/05/09 12:14:14;;;;;;;2.80;2.00;;;23.90;56.00;;;;;;4861492;29;20491;-83
2022/05/09 12:16:55;;;;;;;2.47;2.07;;;23.90;56.00;;;;;;4898455;28;20425;-84
2022/05/09 12:19:32;;;;;;;2.83;2.30;;;23.90;56.00;;;;;;4886343;28;20489;-84
2022/05/09 12:22:34;;;;;;;2.20;1.70;;;23.90;56.00;;;;;;4927916;29;20427;-84
2022/05/09 12:25:13;;;;;;;3.40;1.80;;;23.90;56.10;;;;;;4950102;28;20517;-84
2022/05/09 12:28:15;;;;;;;2.20;2.00;;;23.90;56.00;;;;;;4921874;29;20434;-83
2022/05/09 12:31:23;;;;;;;1.77;1.67;;;23.90;56.10;;;;;;4980460;28;20438;-84
2022/05/09 12:33:54;;;;;;;1.90;1.80;;;23.90;56.10;;;;;;4964512;28;20445;-85
2022/05/09 12:36:32;;;;;;;2.10;1.90;;;23.90;56.10;;;;;;4968882;28;20407;-85
2022/05/09 12:39:16;;;;;;;2.40;2.20;;;23.90;56.10;;;;;;4979147;28;20516;-85
2022/05/09 12:41:56;;;;;;;3.10;2.10;;;23.90;56.10;;;;;;4968838;29;20424;-85
2022/05/09 12:44:54;;;;;;;2.30;2.03;;;23.90;56.10;;;;;;4946009;28;20445;-85
2022/05/09 12:47:26;;;;;;;2.50;2.30;;;23.90;56.10;;;;;;4943520;29;20433;-83
2022/05/09 12:50:21;;;;;;;2.63;1.97;;;23.90;56.10;;;;;;4928530;29;20451;-84
2022/05/09 12:53:17;;;;;;;2.63;2.43;;;23.90;56.10;;;;;;4927778;28;20436;-84
2022/05/09 12:55:55;;;;;;;2.07;1.83;;;23.90;56.10;;;;;;4933826;29;20435;-85
2022/05/09 12:58:34;;;;;;;2.10;1.90;;;23.90;56.10;;;;;;4926189;29;20496;-85
2022/05/09 13:01:14;;;;;;;2.57;2.37;;;23.90;56.10;;;;;;4941984;29;20433;-85
2022/05/09 13:07:08;;;;;;;2.73;2.37;;;23.90;56.00;;;;;;5019186;28;20435;-85
2022/05/09 13:10:05;;;;;;;2.67;2.47;;;23.90;55.90;;;;;;4937888;28;20447;-85
2022/05/09 13:12:41;;;;;;;4.87;3.00;;;23.90;55.90;;;;;;4939128;28;20522;-84
2022/05/09 13:15:12;;;;;;;2.40;2.20;;;23.90;55.80;;;;;;4945515;29;20571;-85
2022/05/09 13:17:50;;;;;;;4.63;2.53;;;23.90;55.80;;;;;;4932422;29;20490;-84
2022/05/09 13:20:25;;;;;;;3.07;2.80;;;23.90;55.70;;;;;;4952678;29;20422;-83
2022/05/09 13:23:06;;;;;;;3.20;2.87;;;23.80;55.50;;;;;;4960127;28;20426;-84
2022/05/09 13:26:00;;;;;;;2.53;2.20;;;23.90;55.60;;;;;;5011118;28;20421;-86
2022/05/09 13:28:33;;;;;;;2.63;2.40;;;23.90;55.50;;;;;;5011982;28;20482;-84
2022/05/09 13:31:00;;;;;;;4.17;2.83;;;23.90;55.50;;;;;;5010018;28;20428;-84
2022/05/09 13:33:31;;;;;;;4.63;2.83;;;23.90;55.40;;;;;;5009569;28;20504;-83
2022/05/09 13:36:03;;;;;;;4.97;3.10;;;23.90;55.40;;;;;;5010561;28;20448;-85
2022/05/09 13:38:39;;;;;;;5.40;2.90;;;23.90;55.40;;;;;;5009815;28;20828;-85
2022/05/09 13:41:14;;;;;;;4.30;3.00;;;23.90;55.30;;;;;;5005879;28;20441;-85
2022/05/09 13:43:54;;;;;;;2.63;2.30;;;23.90;55.30;;;;;;4993057;28;20498;-85
2022/05/09 13:46:40;;;;;;;3.23;2.83;;;23.90;55.30;;;;;;5083017;28;20484;-86
2022/05/09 13:49:13;;;;;;;4.37;2.83;;;23.90;55.20;;;;;;5008333;28;20433;-86
2022/05/09 13:51:56;;;;;;;3.70;2.80;;;23.90;55.20;;;;;;5008017;28;20451;-87
2022/05/09 13:54:28;;;;;;;3.10;2.70;;;23.90;55.20;;;;;;5086741;28;20435;-86
2022/05/09 13:57:09;;;;;;;3.20;2.90;;;23.90;55.20;;;;;;5004330;28;20488;-85
2022/05/09 13:59:47;;;;;;;4.40;3.10;;;23.90;55.20;;;;;;5011055;28;20466;-85
2022/05/09 14:02:17;;;;;;;4.97;4.47;;;23.90;55.30;;;;;;5006580;28;20489;-85